sensor_id;sensor_type;location;lat;lon;timestamp;temperature;humidity
33460;DHT22;19795;53.160;6.612;2023-06-26T03:52:14;20.70;99.90
33460;DHT22;19795;53.160;6.612;2023-06-26T03:59:43;21.10;99.90
33460;DHT22;19795;53.160;6.612;2023-06-26T04:02:08;21.10;99.90
33460;DHT22;19795;53.160;6.612;2023-06-26T04:04:34;21.20;99.90
33460;DHT22;19795;53.160;6.612;2023-06-26T04:06:59;21.30;99.90
33460;DHT22;19795;53.160;6.612;2023-06-26T04:09:26;21.40;99.90
33460;DHT22;19795;53.160;6.612;2023-06-26T04:11:51;21.50;99.90
33460;DHT22;19795;53.160;6.612;2023-06-26T04:14:17;21.30;99.90
33460;DHT22;19795;53.160;6.612;2023-06-26T04:16:43;21.10;99.90
33460;DHT22;19795;53.160;6.612;2023-06-26T04:19:09;21.10;99.90
33460;DHT22;19795;53.160;6.612;2023-06-26T04:21:35;21.10;99.90
33460;DHT22;19795;53.160;6.612;2023-06-26T04:24:01;21.10;99.90
33460;DHT22;19795;53.160;6.612;2023-06-26T04:26:26;21.20;99.90
33460;DHT22;19795;53.160;6.612;2023-06-26T04:28:53;21.20;99.90
33460;DHT22;19795;53.160;6.612;2023-06-26T04:31:19;21.50;99.90
33460;DHT22;19795;53.160;6.612;2023-06-26T04:33:45;21.60;99.90
33460;DHT22;19795;53.160;6.612;2023-06-26T04:36:18;21.80;99.90
33460;DHT22;19795;53.160;6.612;2023-06-26T04:38:44;22.00;99.90
33460;DHT22;19795;53.160;6.612;2023-06-26T04:41:10;22.20;99.90
33460;DHT22;19795;53.160;6.612;2023-06-26T04:43:35;22.30;99.90
33460;DHT22;19795;53.160;6.612;2023-06-26T04:46:02;22.30;99.90
33460;DHT22;19795;53.160;6.612;2023-06-26T04:48:28;22.60;99.90
33460;DHT22;19795;53.160;6.612;2023-06-26T04:50:56;22.80;99.90
33460;DHT22;19795;53.160;6.612;2023-06-26T04:53:23;23.10;99.90
33460;DHT22;19795;53.160;6.612;2023-06-26T04:55:52;23.20;99.90
33460;DHT22;19795;53.160;6.612;2023-06-26T04:58:18;23.10;99.90
33460;DHT22;19795;53.160;6.612;2023-06-26T05:00:44;22.70;99.90
33460;DHT22;19795;53.160;6.612;2023-06-26T05:03:12;22.60;99.90
33460;DHT22;19795;53.160;6.612;2023-06-26T05:05:38;22.50;99.90
33460;DHT22;19795;53.160;6.612;2023-06-26T05:08:16;22.50;99.90
33460;DHT22;19795;53.160;6.612;2023-06-26T05:10:42;22.30;99.90
33460;DHT22;19795;53.160;6.612;2023-06-26T05:13:08;22.00;99.90
33460;DHT22;19795;53.160;6.612;2023-06-26T05:15:34;21.90;99.90
33460;DHT22;19795;53.160;6.612;2023-06-26T05:18:00;21.90;99.90
33460;DHT22;19795;53.160;6.612;2023-06-26T05:20:25;21.70;99.90
33460;DHT22;19795;53.160;6.612;2023-06-26T05:22:52;21.60;99.90
33460;DHT22;19795;53.160;6.612;2023-06-26T05:25:19;21.60;99.90
33460;DHT22;19795;53.160;6.612;2023-06-26T05:27:47;21.70;99.90
33460;DHT22;19795;53.160;6.612;2023-06-26T05:30:14;21.60;99.90
33460;DHT22;19795;53.160;6.612;2023-06-26T05:32:40;21.40;99.90
33460;DHT22;19795;53.160;6.612;2023-06-26T05:35:06;21.10;99.90
33460;DHT22;19795;53.160;6.612;2023-06-26T05:37:33;20.60;99.90
33460;DHT22;19795;53.160;6.612;2023-06-26T05:40:00;20.50;99.90
33460;DHT22;19795;53.160;6.612;2023-06-26T05:42:27;20.40;99.90
33460;DHT22;19795;53.160;6.612;2023-06-26T05:44:53;20.30;99.90
33460;DHT22;19795;53.160;6.612;2023-06-26T05:47:19;20.10;99.90
33460;DHT22;19795;53.160;6.612;2023-06-26T05:49:45;20.00;99.90
33460;DHT22;19795;53.160;6.612;2023-06-26T05:52:11;20.00;99.90
33460;DHT22;19795;53.160;6.612;2023-06-26T05:54:37;20.00;99.90
33460;DHT22;19795;53.160;6.612;2023-06-26T05:57:03;20.00;99.90
33460;DHT22;19795;53.160;6.612;2023-06-26T05:59:31;20.00;99.90
33460;DHT22;19795;53.160;6.612;2023-06-26T06:01:57;19.90;99.90
33460;DHT22;19795;53.160;6.612;2023-06-26T06:04:23;19.80;99.90
33460;DHT22;19795;53.160;6.612;2023-06-26T06:06:48;19.80;99.90
33460;DHT22;19795;53.160;6.612;2023-06-26T06:09:14;19.80;99.90
33460;DHT22;19795;53.160;6.612;2023-06-26T06:11:40;19.70;99.90
33460;DHT22;19795;53.160;6.612;2023-06-26T06:14:06;20.20;99.90
33460;DHT22;19795;53.160;6.612;2023-06-26T06:16:31;20.50;99.90
33460;DHT22;19795;53.160;6.612;2023-06-26T06:18:57;21.00;99.90
33460;DHT22;19795;53.160;6.612;2023-06-26T06:21:23;21.80;99.90
33460;DHT22;19795;53.160;6.612;2023-06-26T06:23:48;22.10;99.90
33460;DHT22;19795;53.160;6.612;2023-06-26T06:26:14;22.20;99.90
33460;DHT22;19795;53.160;6.612;2023-06-26T06:28:40;21.90;99.90
33460;DHT22;19795;53.160;6.612;2023-06-26T06:31:05;21.90;99.90
33460;DHT22;19795;53.160;6.612;2023-06-26T06:33:31;22.00;99.90
33460;DHT22;19795;53.160;6.612;2023-06-26T06:35:57;22.80;99.90
33460;DHT22;19795;53.160;6.612;2023-06-26T06:38:23;22.80;99.90
33460;DHT22;19795;53.160;6.612;2023-06-26T06:40:48;23.00;99.90
33460;DHT22;19795;53.160;6.612;2023-06-26T06:43:14;22.90;99.90
33460;DHT22;19795;53.160;6.612;2023-06-26T06:45:39;22.70;99.90
33460;DHT22;19795;53.160;6.612;2023-06-26T06:48:05;22.70;99.90
33460;DHT22;19795;53.160;6.612;2023-06-26T06:50:32;23.50;99.90
33460;DHT22;19795;53.160;6.612;2023-06-26T06:52:58;23.80;99.90
33460;DHT22;19795;53.160;6.612;2023-06-26T06:55:23;24.70;99.90
33460;DHT22;19795;53.160;6.612;2023-06-26T06:57:51;24.00;99.90
33460;DHT22;19795;53.160;6.612;2023-06-26T07:00:17;23.10;99.90
33460;DHT22;19795;53.160;6.612;2023-06-26T07:02:44;23.00;99.90
33460;DHT22;19795;53.160;6.612;2023-06-26T07:05:11;23.60;99.90
33460;DHT22;19795;53.160;6.612;2023-06-26T07:07:38;23.70;99.90
33460;DHT22;19795;53.160;6.612;2023-06-26T07:10:13;24.30;99.90
33460;DHT22;19795;53.160;6.612;2023-06-26T07:12:39;24.70;99.90
33460;DHT22;19795;53.160;6.612;2023-06-26T07:15:05;24.90;99.90
33460;DHT22;19795;53.160;6.612;2023-06-26T07:17:32;25.60;99.90
33460;DHT22;19795;53.160;6.612;2023-06-26T07:20:00;25.40;99.90
33460;DHT22;19795;53.160;6.612;2023-06-26T07:22:26;24.00;99.90
33460;DHT22;19795;53.160;6.612;2023-06-26T07:24:52;23.50;99.90
33460;DHT22;19795;53.160;6.612;2023-06-26T07:27:18;23.60;99.90
33460;DHT22;19795;53.160;6.612;2023-06-26T07:29:44;24.10;99.90
33460;DHT22;19795;53.160;6.612;2023-06-26T07:32:10;24.70;99.90
33460;DHT22;19795;53.160;6.612;2023-06-26T07:34:36;24.90;99.90
33460;DHT22;19795;53.160;6.612;2023-06-26T07:37:01;24.80;99.90
33460;DHT22;19795;53.160;6.612;2023-06-26T07:39:27;23.90;99.90
33460;DHT22;19795;53.160;6.612;2023-06-26T07:41:52;23.20;99.90
33460;DHT22;19795;53.160;6.612;2023-06-26T07:44:18;23.30;99.90
33460;DHT22;19795;53.160;6.612;2023-06-26T07:46:44;23.50;99.90
33460;DHT22;19795;53.160;6.612;2023-06-26T07:49:12;23.50;99.90
33460;DHT22;19795;53.160;6.612;2023-06-26T07:51:38;23.30;99.90
33460;DHT22;19795;53.160;6.612;2023-06-26T07:54:04;23.00;99.90
33460;DHT22;19795;53.160;6.612;2023-06-26T07:56:29;23.80;99.90
33460;DHT22;19795;53.160;6.612;2023-06-26T07:58:55;23.40;99.90
33460;DHT22;19795;53.160;6.612;2023-06-26T08:01:23;23.00;99.90
33460;DHT22;19795;53.160;6.612;2023-06-26T08:03:49;23.50;99.90
33460;DHT22;19795;53.160;6.612;2023-06-26T08:06:15;23.60;99.90
33460;DHT22;19795;53.160;6.612;2023-06-26T08:08:40;24.00;99.90
33460;DHT22;19795;53.160;6.612;2023-06-26T08:11:06;24.90;99.90
33460;DHT22;19795;53.160;6.612;2023-06-26T08:13:32;24.10;99.90
33460;DHT22;19795;53.160;6.612;2023-06-26T08:15:57;24.30;99.90
33460;DHT22;19795;53.160;6.612;2023-06-26T08:18:23;23.50;99.90
33460;DHT22;19795;53.160;6.612;2023-06-26T08:20:48;23.20;99.90
33460;DHT22;19795;53.160;6.612;2023-06-26T08:23:14;23.00;99.90
33460;DHT22;19795;53.160;6.612;2023-06-26T08:25:40;24.20;99.90
33460;DHT22;19795;53.160;6.612;2023-06-26T08:28:05;25.30;99.90
33460;DHT22;19795;53.160;6.612;2023-06-26T08:30:32;24.40;99.90
33460;DHT22;19795;53.160;6.612;2023-06-26T08:32:57;23.20;99.90
33460;DHT22;19795;53.160;6.612;2023-06-26T08:35:23;23.40;99.90
33460;DHT22;19795;53.160;6.612;2023-06-26T08:37:49;24.40;99.90
33460;DHT22;19795;53.160;6.612;2023-06-26T08:40:17;24.10;99.90
33460;DHT22;19795;53.160;6.612;2023-06-26T08:42:44;24.70;99.90
33460;DHT22;19795;53.160;6.612;2023-06-26T08:45:09;25.70;99.90
33460;DHT22;19795;53.160;6.612;2023-06-26T08:47:35;24.60;99.90
33460;DHT22;19795;53.160;6.612;2023-06-26T08:50:13;24.10;99.90
33460;DHT22;19795;53.160;6.612;2023-06-26T08:53:03;23.70;99.90
33460;DHT22;19795;53.160;6.612;2023-06-26T08:55:31;24.10;99.90
33460;DHT22;19795;53.160;6.612;2023-06-26T08:57:57;23.50;99.90
33460;DHT22;19795;53.160;6.612;2023-06-26T09:00:23;24.00;99.90
33460;DHT22;19795;53.160;6.612;2023-06-26T09:02:49;24.50;99.90
33460;DHT22;19795;53.160;6.612;2023-06-26T09:05:15;24.60;99.90
33460;DHT22;19795;53.160;6.612;2023-06-26T09:07:40;23.80;99.90
33460;DHT22;19795;53.160;6.612;2023-06-26T09:10:07;24.10;99.90
33460;DHT22;19795;53.160;6.612;2023-06-26T09:12:33;24.60;99.90
33460;DHT22;19795;53.160;6.612;2023-06-26T09:14:59;24.10;99.90
33460;DHT22;19795;53.160;6.612;2023-06-26T09:17:29;24.20;99.90
33460;DHT22;19795;53.160;6.612;2023-06-26T09:19:55;24.20;99.90
33460;DHT22;19795;53.160;6.612;2023-06-26T09:22:21;24.00;99.90
33460;DHT22;19795;53.160;6.612;2023-06-26T09:24:48;23.60;99.90
33460;DHT22;19795;53.160;6.612;2023-06-26T09:27:14;24.60;99.90
33460;DHT22;19795;53.160;6.612;2023-06-26T09:29:39;24.40;99.90
33460;DHT22;19795;53.160;6.612;2023-06-26T09:32:07;25.40;99.90
33460;DHT22;19795;53.160;6.612;2023-06-26T09:34:33;24.80;99.90
33460;DHT22;19795;53.160;6.612;2023-06-26T09:36:59;25.60;99.90
33460;DHT22;19795;53.160;6.612;2023-06-26T09:39:30;25.50;99.90
33460;DHT22;19795;53.160;6.612;2023-06-26T09:41:56;24.60;99.90
33460;DHT22;19795;53.160;6.612;2023-06-26T09:44:23;23.90;99.90
33460;DHT22;19795;53.160;6.612;2023-06-26T09:46:48;23.40;99.90
33460;DHT22;19795;53.160;6.612;2023-06-26T09:49:14;23.70;99.90
33460;DHT22;19795;53.160;6.612;2023-06-26T09:51:41;24.10;99.90
33460;DHT22;19795;53.160;6.612;2023-06-26T09:54:08;25.30;99.90
33460;DHT22;19795;53.160;6.612;2023-06-26T09:56:35;25.80;99.90
33460;DHT22;19795;53.160;6.612;2023-06-26T09:59:02;25.40;99.90
33460;DHT22;19795;53.160;6.612;2023-06-26T10:01:29;24.60;99.90
33460;DHT22;19795;53.160;6.612;2023-06-26T10:03:55;24.10;99.90
33460;DHT22;19795;53.160;6.612;2023-06-26T10:06:37;23.20;99.90
33460;DHT22;19795;53.160;6.612;2023-06-26T10:09:04;22.90;99.90
33460;DHT22;19795;53.160;6.612;2023-06-26T10:11:58;24.50;99.90
33460;DHT22;19795;53.160;6.612;2023-06-26T10:14:33;25.60;99.90
33460;DHT22;19795;53.160;6.612;2023-06-26T10:17:01;27.40;99.90
33460;DHT22;19795;53.160;6.612;2023-06-26T10:19:29;27.40;99.90
33460;DHT22;19795;53.160;6.612;2023-06-26T10:21:57;26.50;99.90
33460;DHT22;19795;53.160;6.612;2023-06-26T10:24:25;25.30;99.90
33460;DHT22;19795;53.160;6.612;2023-06-26T10:27:04;25.30;99.90
33460;DHT22;19795;53.160;6.612;2023-06-26T10:29:35;26.90;99.90
33460;DHT22;19795;53.160;6.612;2023-06-26T10:32:02;27.00;99.90
33460;DHT22;19795;53.160;6.612;2023-06-26T10:34:29;28.30;99.90
33460;DHT22;19795;53.160;6.612;2023-06-26T10:37:02;26.90;99.20
33460;DHT22;19795;53.160;6.612;2023-06-26T10:39:49;25.60;99.90
33460;DHT22;19795;53.160;6.612;2023-06-26T10:42:15;26.50;99.90
33460;DHT22;19795;53.160;6.612;2023-06-26T10:44:43;26.60;99.90
33460;DHT22;19795;53.160;6.612;2023-06-26T10:47:10;26.00;98.90
33460;DHT22;19795;53.160;6.612;2023-06-26T10:49:36;25.70;99.90
33460;DHT22;19795;53.160;6.612;2023-06-26T10:52:07;25.00;99.90
33460;DHT22;19795;53.160;6.612;2023-06-26T10:54:33;26.20;99.90
33460;DHT22;19795;53.160;6.612;2023-06-26T10:56:59;25.90;99.90
33460;DHT22;19795;53.160;6.612;2023-06-26T10:59:28;26.00;99.90
33460;DHT22;19795;53.160;6.612;2023-06-26T11:04:49;25.10;99.90
33460;DHT22;19795;53.160;6.612;2023-06-26T11:07:22;25.50;99.90
33460;DHT22;19795;53.160;6.612;2023-06-26T11:10:07;25.00;99.90
33460;DHT22;19795;53.160;6.612;2023-06-26T11:12:40;25.10;99.90
33460;DHT22;19795;53.160;6.612;2023-06-26T11:15:07;26.00;99.90
33460;DHT22;19795;53.160;6.612;2023-06-26T11:17:35;27.40;99.90
33460;DHT22;19795;53.160;6.612;2023-06-26T11:20:01;27.80;99.60
33460;DHT22;19795;53.160;6.612;2023-06-26T11:22:26;28.00;98.20
33460;DHT22;19795;53.160;6.612;2023-06-26T11:24:54;28.70;97.90
33460;DHT22;19795;53.160;6.612;2023-06-26T11:27:19;29.50;97.50
33460;DHT22;19795;53.160;6.612;2023-06-26T11:29:48;29.00;96.90
33460;DHT22;19795;53.160;6.612;2023-06-26T11:32:17;27.30;96.90
33460;DHT22;19795;53.160;6.612;2023-06-26T11:34:43;26.70;97.70
33460;DHT22;19795;53.160;6.612;2023-06-26T11:37:09;25.70;98.30
33460;DHT22;19795;53.160;6.612;2023-06-26T11:39:35;25.50;99.90
33460;DHT22;19795;53.160;6.612;2023-06-26T11:42:03;25.70;99.80
33460;DHT22;19795;53.160;6.612;2023-06-26T11:44:30;26.60;99.90
33460;DHT22;19795;53.160;6.612;2023-06-26T11:46:57;27.80;97.60
33460;DHT22;19795;53.160;6.612;2023-06-26T11:49:23;28.70;95.80
33460;DHT22;19795;53.160;6.612;2023-06-26T11:51:51;28.40;97.60
33460;DHT22;19795;53.160;6.612;2023-06-26T11:54:23;28.60;94.10
33460;DHT22;19795;53.160;6.612;2023-06-26T11:56:57;28.00;95.50
33460;DHT22;19795;53.160;6.612;2023-06-26T11:59:24;28.40;95.80
33460;DHT22;19795;53.160;6.612;2023-06-26T12:01:56;27.40;96.60
33460;DHT22;19795;53.160;6.612;2023-06-26T12:04:23;26.30;96.00
33460;DHT22;19795;53.160;6.612;2023-06-26T12:06:52;26.00;98.20
33460;DHT22;19795;53.160;6.612;2023-06-26T12:09:22;26.30;96.80
33460;DHT22;19795;53.160;6.612;2023-06-26T12:11:52;25.20;96.90
33460;DHT22;19795;53.160;6.612;2023-06-26T12:14:20;24.80;98.50
33460;DHT22;19795;53.160;6.612;2023-06-26T12:16:48;24.40;98.90
33460;DHT22;19795;53.160;6.612;2023-06-26T12:19:16;25.50;99.20
33460;DHT22;19795;53.160;6.612;2023-06-26T12:21:49;26.00;98.70
33460;DHT22;19795;53.160;6.612;2023-06-26T12:24:20;25.20;98.30
33460;DHT22;19795;53.160;6.612;2023-06-26T12:26:50;24.70;98.30
33460;DHT22;19795;53.160;6.612;2023-06-26T12:29:18;24.40;99.00
33460;DHT22;19795;53.160;6.612;2023-06-26T12:31:46;24.80;98.00
33460;DHT22;19795;53.160;6.612;2023-06-26T12:34:19;25.00;97.70
33460;DHT22;19795;53.160;6.612;2023-06-26T12:36:46;25.80;98.70
33460;DHT22;19795;53.160;6.612;2023-06-26T12:39:16;25.00;98.30
33460;DHT22;19795;53.160;6.612;2023-06-26T12:44:23;24.50;99.30
33460;DHT22;19795;53.160;6.612;2023-06-26T12:46:54;25.30;98.20
33460;DHT22;19795;53.160;6.612;2023-06-26T12:49:20;25.10;97.80
33460;DHT22;19795;53.160;6.612;2023-06-26T12:51:47;25.10;98.80
33460;DHT22;19795;53.160;6.612;2023-06-26T12:54:13;24.20;99.30
33460;DHT22;19795;53.160;6.612;2023-06-26T12:56:39;23.60;99.90
33460;DHT22;19795;53.160;6.612;2023-06-26T12:59:04;23.70;99.90
33460;DHT22;19795;53.160;6.612;2023-06-26T13:01:30;24.30;99.90
33460;DHT22;19795;53.160;6.612;2023-06-26T13:03:55;24.60;99.90
33460;DHT22;19795;53.160;6.612;2023-06-26T13:06:21;24.00;99.90
33460;DHT22;19795;53.160;6.612;2023-06-26T13:08:47;23.90;99.90
33460;DHT22;19795;53.160;6.612;2023-06-26T13:11:12;23.50;99.90
33460;DHT22;19795;53.160;6.612;2023-06-26T13:13:38;24.10;99.90
33460;DHT22;19795;53.160;6.612;2023-06-26T13:16:04;24.80;99.70
33460;DHT22;19795;53.160;6.612;2023-06-26T13:18:30;25.20;99.90
33460;DHT22;19795;53.160;6.612;2023-06-26T13:20:56;24.40;99.90
33460;DHT22;19795;53.160;6.612;2023-06-26T13:23:21;23.60;99.90
33460;DHT22;19795;53.160;6.612;2023-06-26T13:25:47;23.00;99.90
33460;DHT22;19795;53.160;6.612;2023-06-26T13:28:12;23.10;99.90
33460;DHT22;19795;53.160;6.612;2023-06-26T13:30:38;23.40;99.90
33460;DHT22;19795;53.160;6.612;2023-06-26T13:33:03;24.70;99.90
33460;DHT22;19795;53.160;6.612;2023-06-26T13:35:29;25.80;99.20
33460;DHT22;19795;53.160;6.612;2023-06-26T13:37:55;25.60;97.80
33460;DHT22;19795;53.160;6.612;2023-06-26T13:40:20;25.00;99.90
33460;DHT22;19795;53.160;6.612;2023-06-26T13:42:46;23.90;99.90
33460;DHT22;19795;53.160;6.612;2023-06-26T13:45:12;23.20;99.90
33460;DHT22;19795;53.160;6.612;2023-06-26T13:47:37;23.10;99.90
33460;DHT22;19795;53.160;6.612;2023-06-26T13:50:07;23.70;99.90
33460;DHT22;19795;53.160;6.612;2023-06-26T13:52:33;24.20;99.90
33460;DHT22;19795;53.160;6.612;2023-06-26T13:54:59;25.40;99.90
33460;DHT22;19795;53.160;6.612;2023-06-26T13:57:25;26.10;99.40
33460;DHT22;19795;53.160;6.612;2023-06-26T13:59:53;26.00;99.00
33460;DHT22;19795;53.160;6.612;2023-06-26T14:02:18;27.00;97.30
33460;DHT22;19795;53.160;6.612;2023-06-26T14:04:44;26.80;96.90
33460;DHT22;19795;53.160;6.612;2023-06-26T14:07:09;25.30;98.40
33460;DHT22;19795;53.160;6.612;2023-06-26T14:09:35;23.80;99.90
33460;DHT22;19795;53.160;6.612;2023-06-26T14:12:01;23.70;99.90
33460;DHT22;19795;53.160;6.612;2023-06-26T14:14:26;23.40;99.90
33460;DHT22;19795;53.160;6.612;2023-06-26T14:16:53;23.00;99.90
33460;DHT22;19795;53.160;6.612;2023-06-26T14:19:18;22.30;99.90
33460;DHT22;19795;53.160;6.612;2023-06-26T14:21:44;22.30;99.90
33460;DHT22;19795;53.160;6.612;2023-06-26T14:24:10;21.70;99.90
33460;DHT22;19795;53.160;6.612;2023-06-26T14:26:36;22.00;99.90
33460;DHT22;19795;53.160;6.612;2023-06-26T14:29:02;23.70;99.90
33460;DHT22;19795;53.160;6.612;2023-06-26T14:31:28;25.10;99.90
33460;DHT22;19795;53.160;6.612;2023-06-26T14:33:54;25.20;97.80
33460;DHT22;19795;53.160;6.612;2023-06-26T14:36:19;24.50;98.10
33460;DHT22;19795;53.160;6.612;2023-06-26T14:38:45;23.70;99.90
33460;DHT22;19795;53.160;6.612;2023-06-26T14:41:11;24.20;99.90
33460;DHT22;19795;53.160;6.612;2023-06-26T14:43:38;25.20;98.40
33460;DHT22;19795;53.160;6.612;2023-06-26T14:46:03;24.30;99.90
33460;DHT22;19795;53.160;6.612;2023-06-26T14:48:29;23.60;99.90
33460;DHT22;19795;53.160;6.612;2023-06-26T14:50:55;23.00;99.90
33460;DHT22;19795;53.160;6.612;2023-06-26T14:53:20;23.20;99.90
33460;DHT22;19795;53.160;6.612;2023-06-26T14:55:46;24.20;99.90
33460;DHT22;19795;53.160;6.612;2023-06-26T14:58:11;24.70;99.90
33460;DHT22;19795;53.160;6.612;2023-06-26T15:00:37;25.30;99.50
33460;DHT22;19795;53.160;6.612;2023-06-26T15:03:03;24.60;99.50
33460;DHT22;19795;53.160;6.612;2023-06-26T15:05:28;24.40;99.90
33460;DHT22;19795;53.160;6.612;2023-06-26T15:07:54;24.10;99.90
33460;DHT22;19795;53.160;6.612;2023-06-26T15:10:19;23.20;99.90
33460;DHT22;19795;53.160;6.612;2023-06-26T15:12:46;22.70;99.90
33460;DHT22;19795;53.160;6.612;2023-06-26T15:15:12;22.80;99.90
33460;DHT22;19795;53.160;6.612;2023-06-26T15:17:38;22.80;99.90
33460;DHT22;19795;53.160;6.612;2023-06-26T15:20:04;22.20;99.90
33460;DHT22;19795;53.160;6.612;2023-06-26T15:22:30;22.70;99.90
33460;DHT22;19795;53.160;6.612;2023-06-26T15:24:56;22.10;99.90
33460;DHT22;19795;53.160;6.612;2023-06-26T15:27:21;21.80;99.90
33460;DHT22;19795;53.160;6.612;2023-06-26T15:29:47;21.40;99.90
33460;DHT22;19795;53.160;6.612;2023-06-26T15:32:13;21.70;99.90
33460;DHT22;19795;53.160;6.612;2023-06-26T15:34:38;22.00;99.90
33460;DHT22;19795;53.160;6.612;2023-06-26T15:37:04;22.60;99.90
33460;DHT22;19795;53.160;6.612;2023-06-26T15:39:30;22.80;99.90
33460;DHT22;19795;53.160;6.612;2023-06-26T15:41:55;22.00;99.90
33460;DHT22;19795;53.160;6.612;2023-06-26T15:44:21;21.80;99.90
33460;DHT22;19795;53.160;6.612;2023-06-26T15:46:47;21.80;99.90
33460;DHT22;19795;53.160;6.612;2023-06-26T15:49:12;21.90;99.90
33460;DHT22;19795;53.160;6.612;2023-06-26T15:51:38;21.80;99.90
33460;DHT22;19795;53.160;6.612;2023-06-26T15:54:04;22.10;99.90
33460;DHT22;19795;53.160;6.612;2023-06-26T15:56:30;21.60;99.90
33460;DHT22;19795;53.160;6.612;2023-06-26T15:58:56;21.10;99.90
33460;DHT22;19795;53.160;6.612;2023-06-26T16:01:22;20.60;99.90
33460;DHT22;19795;53.160;6.612;2023-06-26T16:03:48;20.70;99.90
33460;DHT22;19795;53.160;6.612;2023-06-26T16:06:13;20.90;99.90
33460;DHT22;19795;53.160;6.612;2023-06-26T16:08:39;21.00;99.90
33460;DHT22;19795;53.160;6.612;2023-06-26T16:11:07;20.80;99.90
33460;DHT22;19795;53.160;6.612;2023-06-26T16:13:33;21.30;99.90
33460;DHT22;19795;53.160;6.612;2023-06-26T16:15:59;21.50;99.90
33460;DHT22;19795;53.160;6.612;2023-06-26T16:18:25;21.10;99.90
33460;DHT22;19795;53.160;6.612;2023-06-26T16:20:51;20.70;99.90
33460;DHT22;19795;53.160;6.612;2023-06-26T16:23:18;20.40;99.90
33460;DHT22;19795;53.160;6.612;2023-06-26T16:25:44;20.10;99.90
33460;DHT22;19795;53.160;6.612;2023-06-26T16:28:09;20.30;99.90
33460;DHT22;19795;53.160;6.612;2023-06-26T16:30:35;21.00;99.90
33460;DHT22;19795;53.160;6.612;2023-06-26T16:33:00;21.70;99.90
33460;DHT22;19795;53.160;6.612;2023-06-26T16:35:26;21.40;99.90
33460;DHT22;19795;53.160;6.612;2023-06-26T16:37:52;20.90;99.90
33460;DHT22;19795;53.160;6.612;2023-06-26T16:40:18;21.10;99.90
33460;DHT22;19795;53.160;6.612;2023-06-26T16:42:43;21.40;99.90
33460;DHT22;19795;53.160;6.612;2023-06-26T16:45:09;21.30;99.90
33460;DHT22;19795;53.160;6.612;2023-06-26T16:47:35;21.40;99.90
33460;DHT22;19795;53.160;6.612;2023-06-26T16:50:01;22.10;99.90
33460;DHT22;19795;53.160;6.612;2023-06-26T16:52:27;22.40;99.90
33460;DHT22;19795;53.160;6.612;2023-06-26T16:54:52;21.70;99.90
33460;DHT22;19795;53.160;6.612;2023-06-26T16:57:18;21.50;99.90
33460;DHT22;19795;53.160;6.612;2023-06-26T16:59:44;22.30;99.60
33460;DHT22;19795;53.160;6.612;2023-06-26T17:02:09;23.10;98.90
33460;DHT22;19795;53.160;6.612;2023-06-26T17:04:36;23.40;98.90
33460;DHT22;19795;53.160;6.612;2023-06-26T17:07:01;22.50;99.90
33460;DHT22;19795;53.160;6.612;2023-06-26T17:09:27;22.70;99.50
33460;DHT22;19795;53.160;6.612;2023-06-26T17:11:53;22.60;99.90
33460;DHT22;19795;53.160;6.612;2023-06-26T17:14:19;22.70;99.90
33460;DHT22;19795;53.160;6.612;2023-06-26T17:16:44;22.90;99.90
33460;DHT22;19795;53.160;6.612;2023-06-26T17:19:10;22.60;99.90
33460;DHT22;19795;53.160;6.612;2023-06-26T17:21:36;22.70;99.70
33460;DHT22;19795;53.160;6.612;2023-06-26T17:24:03;22.70;98.60
33460;DHT22;19795;53.160;6.612;2023-06-26T17:26:29;22.70;98.80
33460;DHT22;19795;53.160;6.612;2023-06-26T17:28:55;22.60;98.40
33460;DHT22;19795;53.160;6.612;2023-06-26T17:31:21;23.30;97.90
33460;DHT22;19795;53.160;6.612;2023-06-26T17:33:47;23.70;97.30
33460;DHT22;19795;53.160;6.612;2023-06-26T17:36:12;23.30;96.10
33460;DHT22;19795;53.160;6.612;2023-06-26T17:38:38;23.30;95.80
33460;DHT22;19795;53.160;6.612;2023-06-26T17:41:05;23.00;96.20
33460;DHT22;19795;53.160;6.612;2023-06-26T17:43:30;22.80;96.20
33460;DHT22;19795;53.160;6.612;2023-06-26T17:45:56;22.60;96.40
33460;DHT22;19795;53.160;6.612;2023-06-26T17:48:22;22.80;97.20
33460;DHT22;19795;53.160;6.612;2023-06-26T17:50:48;22.90;96.30
33460;DHT22;19795;53.160;6.612;2023-06-26T17:53:15;22.80;97.10
33460;DHT22;19795;53.160;6.612;2023-06-26T17:55:41;22.90;96.70
33460;DHT22;19795;53.160;6.612;2023-06-26T17:58:06;22.80;97.00
33460;DHT22;19795;53.160;6.612;2023-06-26T18:00:32;22.10;98.20
33460;DHT22;19795;53.160;6.612;2023-06-26T18:02:58;22.50;98.30
33460;DHT22;19795;53.160;6.612;2023-06-26T18:05:24;22.60;98.00
33460;DHT22;19795;53.160;6.612;2023-06-26T18:07:50;22.30;98.00
33460;DHT22;19795;53.160;6.612;2023-06-26T18:10:15;22.20;97.90
33460;DHT22;19795;53.160;6.612;2023-06-26T18:12:41;22.30;98.00
33460;DHT22;19795;53.160;6.612;2023-06-26T18:15:07;21.90;99.30
33460;DHT22;19795;53.160;6.612;2023-06-26T18:17:33;21.70;99.90
33460;DHT22;19795;53.160;6.612;2023-06-26T18:19:58;22.60;99.10
33460;DHT22;19795;53.160;6.612;2023-06-26T18:22:24;22.60;99.00
33460;DHT22;19795;53.160;6.612;2023-06-26T18:24:50;22.00;99.60
33460;DHT22;19795;53.160;6.612;2023-06-26T18:27:15;22.20;99.10
33460;DHT22;19795;53.160;6.612;2023-06-26T18:29:41;21.60;99.60
33460;DHT22;19795;53.160;6.612;2023-06-26T18:32:07;21.20;99.90
33460;DHT22;19795;53.160;6.612;2023-06-26T18:34:32;21.30;99.90
33460;DHT22;19795;53.160;6.612;2023-06-26T18:36:58;21.40;99.80
33460;DHT22;19795;53.160;6.612;2023-06-26T18:39:27;21.00;99.90
33460;DHT22;19795;53.160;6.612;2023-06-26T18:41:52;20.90;99.90
33460;DHT22;19795;53.160;6.612;2023-06-26T18:44:18;20.80;99.90
33460;DHT22;19795;53.160;6.612;2023-06-26T18:46:44;20.80;99.90
33460;DHT22;19795;53.160;6.612;2023-06-26T18:49:10;20.80;99.90
33460;DHT22;19795;53.160;6.612;2023-06-26T18:51:35;20.90;99.90
33460;DHT22;19795;53.160;6.612;2023-06-26T18:54:01;20.30;99.90
33460;DHT22;19795;53.160;6.612;2023-06-26T18:56:28;19.80;99.90
33460;DHT22;19795;53.160;6.612;2023-06-26T18:58:54;19.20;99.90
33460;DHT22;19795;53.160;6.612;2023-06-26T19:01:20;18.70;99.90
33460;DHT22;19795;53.160;6.612;2023-06-26T19:03:46;18.50;99.90
33460;DHT22;19795;53.160;6.612;2023-06-26T19:06:13;18.30;99.90
33460;DHT22;19795;53.160;6.612;2023-06-26T19:08:39;18.20;99.90
33460;DHT22;19795;53.160;6.612;2023-06-26T19:11:06;18.10;99.90
33460;DHT22;19795;53.160;6.612;2023-06-26T19:13:32;17.90;99.90
33460;DHT22;19795;53.160;6.612;2023-06-26T19:15:58;17.90;99.90
33460;DHT22;19795;53.160;6.612;2023-06-26T19:18:24;17.80;99.90
33460;DHT22;19795;53.160;6.612;2023-06-26T19:20:50;17.80;99.90
33460;DHT22;19795;53.160;6.612;2023-06-26T19:23:15;17.60;99.90
33460;DHT22;19795;53.160;6.612;2023-06-26T19:25:41;17.50;99.90
33460;DHT22;19795;53.160;6.612;2023-06-26T19:28:09;17.40;99.90